Hauptseite
METAR-TAF:

METAR-TAF

Flughäfen :

Flughafen Mailand-Malpensa

Mailand, Italien

Breite: 45-37N, Länge: 008-44E, Höhe: 234 m

Beobachtung

Neuester Wetterbericht von vor 16 Minuten, um 04:20 UTC
Wind 7 kt aus West/Nordwest
Temperatur 7°C
Luftfeuchtigkeit 100%
Luftdruck 1003 hPa
Sichtweite 10 km oder mehr
Durchbrochene Bewölkung in der Höhe von 5000 ft
Leichtregen

METAR: LIMC 170420Z 30007KT 9999 -RA BKN050 07/07 Q1003 NOSIG

Zeit: 05:36 (04:36 UTC)

Prognose

Neuester Wetterbericht von vor 5 Stunden und 36 Minuten, um 23:00 UTC
Gültige Prognose vom 17 um 00 UTC bis 18 um 06 UTC
Wind 5 kt aus unterschiedlichen Richtungen
Sichtweite: 4000 m
Durchbrochene Bewölkung in der Höhe von 5000 ft
Regen

TAF: LIMC 162300Z 1700/1806 VRB05KT 4000 RA BKN15 BKN050

Wetterbeobachtungen und Prognosen von mehr als 4000 Flughäfen (METAR und TAF Bericht).

Die verfügbaren Stationen werden durch gelbe und rote Markierungen auf der Karte dargestellt.

Führen Sie die Maus auf sie, um den Namen der Station zu sehen.

Darauf klicken, um die Beobachtung von Wetterbeobachtungen und Prognosen zu sehen.

Um die Karte zu ändern : klicken Sie auf den grünen Tasten mit einem schwarzen Kreuz Zum Vergrößern, auf den grünen Button mit einem Gedankenstrich zu verkleinern, oder auf die grünen Pfeile für benachbarte Karten.


METAR-TAF: